sensor_id;sensor_type;location;lat;lon;timestamp;temperature;humidity
8953;DHT22;4511;50.890;8.054;2024-01-30T00:01:00;4.80;99.90
8953;DHT22;4511;50.890;8.054;2024-01-30T00:03:27;4.90;1.00
8953;DHT22;4511;50.890;8.054;2024-01-30T00:05:56;4.80;1.00
8953;DHT22;4511;50.890;8.054;2024-01-30T00:08:23;4.80;99.90
8953;DHT22;4511;50.890;8.054;2024-01-30T00:10:57;4.80;99.90
8953;DHT22;4511;50.890;8.054;2024-01-30T00:13:23;4.70;1.00
8953;DHT22;4511;50.890;8.054;2024-01-30T00:15:50;4.70;1.00
8953;DHT22;4511;50.890;8.054;2024-01-30T00:18:17;4.70;1.00
8953;DHT22;4511;50.890;8.054;2024-01-30T00:20:45;4.70;1.00
8953;DHT22;4511;50.890;8.054;2024-01-30T00:23:13;4.70;99.90
8953;DHT22;4511;50.890;8.054;2024-01-30T00:25:40;4.60;1.00
8953;DHT22;4511;50.890;8.054;2024-01-30T00:28:06;4.50;1.00
8953;DHT22;4511;50.890;8.054;2024-01-30T00:30:33;4.50;1.00
8953;DHT22;4511;50.890;8.054;2024-01-30T00:33:00;4.50;99.90
8953;DHT22;4511;50.890;8.054;2024-01-30T00:35:26;4.50;1.00
8953;DHT22;4511;50.890;8.054;2024-01-30T00:37:54;4.50;1.00
8953;DHT22;4511;50.890;8.054;2024-01-30T00:40:22;4.40;1.00
8953;DHT22;4511;50.890;8.054;2024-01-30T00:42:49;4.40;99.90
8953;DHT22;4511;50.890;8.054;2024-01-30T00:45:16;4.40;99.90
8953;DHT22;4511;50.890;8.054;2024-01-30T00:47:44;4.40;99.90
8953;DHT22;4511;50.890;8.054;2024-01-30T00:50:11;4.30;99.90
8953;DHT22;4511;50.890;8.054;2024-01-30T00:52:37;4.30;98.70
8953;DHT22;4511;50.890;8.054;2024-01-30T00:55:07;4.40;1.00
8953;DHT22;4511;50.890;8.054;2024-01-30T00:57:35;4.30;1.00
8953;DHT22;4511;50.890;8.054;2024-01-30T01:00:01;4.30;99.90
8953;DHT22;4511;50.890;8.054;2024-01-30T01:02:30;4.30;1.00
8953;DHT22;4511;50.890;8.054;2024-01-30T01:04:57;4.20;99.90
8953;DHT22;4511;50.890;8.054;2024-01-30T01:07:24;4.30;1.00
8953;DHT22;4511;50.890;8.054;2024-01-30T01:09:50;4.30;99.90
8953;DHT22;4511;50.890;8.054;2024-01-30T01:12:17;4.30;1.00
8953;DHT22;4511;50.890;8.054;2024-01-30T01:14:45;4.30;1.00
8953;DHT22;4511;50.890;8.054;2024-01-30T01:17:12;4.30;1.00
8953;DHT22;4511;50.890;8.054;2024-01-30T01:19:39;4.20;99.90
8953;DHT22;4511;50.890;8.054;2024-01-30T01:22:06;4.20;1.00
8953;DHT22;4511;50.890;8.054;2024-01-30T01:24:32;4.10;1.00
8953;DHT22;4511;50.890;8.054;2024-01-30T01:26:59;4.00;1.00
8953;DHT22;4511;50.890;8.054;2024-01-30T01:29:26;4.10;1.00
8953;DHT22;4511;50.890;8.054;2024-01-30T01:31:55;4.00;1.00
8953;DHT22;4511;50.890;8.054;2024-01-30T01:34:22;4.00;99.90
8953;DHT22;4511;50.890;8.054;2024-01-30T01:36:49;3.90;1.00
8953;DHT22;4511;50.890;8.054;2024-01-30T01:39:16;4.00;1.00
8953;DHT22;4511;50.890;8.054;2024-01-30T01:41:43;4.00;1.00
8953;DHT22;4511;50.890;8.054;2024-01-30T01:44:10;4.00;1.00
8953;DHT22;4511;50.890;8.054;2024-01-30T01:46:37;3.90;1.00
8953;DHT22;4511;50.890;8.054;2024-01-30T01:49:05;3.90;1.00
8953;DHT22;4511;50.890;8.054;2024-01-30T01:51:34;3.80;1.00
8953;DHT22;4511;50.890;8.054;2024-01-30T01:54:03;3.90;1.00
8953;DHT22;4511;50.890;8.054;2024-01-30T01:56:31;3.90;1.00
8953;DHT22;4511;50.890;8.054;2024-01-30T01:59:03;3.90;1.00
8953;DHT22;4511;50.890;8.054;2024-01-30T02:01:31;3.90;1.00
8953;DHT22;4511;50.890;8.054;2024-01-30T02:03:59;3.80;1.00
8953;DHT22;4511;50.890;8.054;2024-01-30T02:06:27;3.80;1.00
8953;DHT22;4511;50.890;8.054;2024-01-30T02:08:54;3.70;1.00
8953;DHT22;4511;50.890;8.054;2024-01-30T02:11:22;3.70;1.00
8953;DHT22;4511;50.890;8.054;2024-01-30T02:13:49;3.80;1.00
8953;DHT22;4511;50.890;8.054;2024-01-30T02:16:16;3.70;1.00
8953;DHT22;4511;50.890;8.054;2024-01-30T02:18:43;3.70;1.00
8953;DHT22;4511;50.890;8.054;2024-01-30T02:21:14;3.70;1.00
8953;DHT22;4511;50.890;8.054;2024-01-30T02:23:41;3.70;1.00
8953;DHT22;4511;50.890;8.054;2024-01-30T02:26:09;3.70;1.00
8953;DHT22;4511;50.890;8.054;2024-01-30T02:28:36;3.70;1.00
8953;DHT22;4511;50.890;8.054;2024-01-30T02:31:03;3.70;1.00
8953;DHT22;4511;50.890;8.054;2024-01-30T02:33:30;3.60;1.00
8953;DHT22;4511;50.890;8.054;2024-01-30T02:35:57;3.60;1.00
8953;DHT22;4511;50.890;8.054;2024-01-30T02:38:25;3.60;1.00
8953;DHT22;4511;50.890;8.054;2024-01-30T02:40:52;3.50;1.00
8953;DHT22;4511;50.890;8.054;2024-01-30T02:43:19;3.60;99.40
8953;DHT22;4511;50.890;8.054;2024-01-30T02:45:46;3.60;1.00
8953;DHT22;4511;50.890;8.054;2024-01-30T02:48:12;3.60;1.00
8953;DHT22;4511;50.890;8.054;2024-01-30T02:50:39;3.60;1.00
8953;DHT22;4511;50.890;8.054;2024-01-30T02:53:06;3.50;1.00
8953;DHT22;4511;50.890;8.054;2024-01-30T02:55:34;3.50;1.00
8953;DHT22;4511;50.890;8.054;2024-01-30T02:58:01;3.50;99.90
8953;DHT22;4511;50.890;8.054;2024-01-30T03:00:27;3.40;99.90
8953;DHT22;4511;50.890;8.054;2024-01-30T03:02:54;3.50;1.00
8953;DHT22;4511;50.890;8.054;2024-01-30T03:05:21;3.50;1.00
8953;DHT22;4511;50.890;8.054;2024-01-30T03:07:48;3.50;99.90
8953;DHT22;4511;50.890;8.054;2024-01-30T03:10:14;3.50;99.90
8953;DHT22;4511;50.890;8.054;2024-01-30T03:12:42;3.50;99.90
8953;DHT22;4511;50.890;8.054;2024-01-30T03:15:09;3.50;58.60
8953;DHT22;4511;50.890;8.054;2024-01-30T03:17:36;3.40;99.90
8953;DHT22;4511;50.890;8.054;2024-01-30T03:20:03;3.40;1.00
8953;DHT22;4511;50.890;8.054;2024-01-30T03:22:31;3.40;99.90
8953;DHT22;4511;50.890;8.054;2024-01-30T03:24:58;3.50;1.00
8953;DHT22;4511;50.890;8.054;2024-01-30T03:27:24;3.40;99.90
8953;DHT22;4511;50.890;8.054;2024-01-30T03:29:53;3.40;1.00
8953;DHT22;4511;50.890;8.054;2024-01-30T03:32:19;3.40;1.00
8953;DHT22;4511;50.890;8.054;2024-01-30T03:34:46;3.40;1.00
8953;DHT22;4511;50.890;8.054;2024-01-30T03:37:13;3.40;1.00
8953;DHT22;4511;50.890;8.054;2024-01-30T03:39:39;3.30;1.00
8953;DHT22;4511;50.890;8.054;2024-01-30T03:42:06;3.30;1.00
8953;DHT22;4511;50.890;8.054;2024-01-30T03:44:33;3.40;1.00
8953;DHT22;4511;50.890;8.054;2024-01-30T03:47:01;3.30;14.50
8953;DHT22;4511;50.890;8.054;2024-01-30T03:49:28;3.30;1.00
8953;DHT22;4511;50.890;8.054;2024-01-30T03:51:54;3.30;99.90
8953;DHT22;4511;50.890;8.054;2024-01-30T03:54:21;3.30;99.90
8953;DHT22;4511;50.890;8.054;2024-01-30T03:56:48;3.30;99.90
8953;DHT22;4511;50.890;8.054;2024-01-30T03:59:14;3.30;99.90
8953;DHT22;4511;50.890;8.054;2024-01-30T04:01:41;3.30;99.90
8953;DHT22;4511;50.890;8.054;2024-01-30T04:04:09;3.30;99.90
8953;DHT22;4511;50.890;8.054;2024-01-30T04:06:36;3.30;99.90
8953;DHT22;4511;50.890;8.054;2024-01-30T04:09:03;3.30;1.00
8953;DHT22;4511;50.890;8.054;2024-01-30T04:11:30;3.30;1.00
8953;DHT22;4511;50.890;8.054;2024-01-30T04:13:56;3.30;1.00
8953;DHT22;4511;50.890;8.054;2024-01-30T04:16:23;3.30;1.00
8953;DHT22;4511;50.890;8.054;2024-01-30T04:18:51;3.30;99.90
8953;DHT22;4511;50.890;8.054;2024-01-30T04:21:20;3.30;59.60
8953;DHT22;4511;50.890;8.054;2024-01-30T04:23:47;3.30;99.90
8953;DHT22;4511;50.890;8.054;2024-01-30T04:26:14;3.30;1.00
8953;DHT22;4511;50.890;8.054;2024-01-30T04:28:41;3.20;99.90
8953;DHT22;4511;50.890;8.054;2024-01-30T04:31:08;3.20;1.00
8953;DHT22;4511;50.890;8.054;2024-01-30T04:33:35;3.20;35.40
8953;DHT22;4511;50.890;8.054;2024-01-30T04:36:02;3.20;99.90
8953;DHT22;4511;50.890;8.054;2024-01-30T04:38:31;3.20;99.90
8953;DHT22;4511;50.890;8.054;2024-01-30T04:40:58;3.20;99.90
8953;DHT22;4511;50.890;8.054;2024-01-30T04:43:25;3.20;99.90
8953;DHT22;4511;50.890;8.054;2024-01-30T04:45:52;3.20;1.00
8953;DHT22;4511;50.890;8.054;2024-01-30T04:48:19;3.20;1.00
8953;DHT22;4511;50.890;8.054;2024-01-30T04:50:46;3.20;99.90
8953;DHT22;4511;50.890;8.054;2024-01-30T04:53:12;3.10;99.90
8953;DHT22;4511;50.890;8.054;2024-01-30T04:55:40;3.10;99.90
8953;DHT22;4511;50.890;8.054;2024-01-30T04:58:07;3.10;1.00
8953;DHT22;4511;50.890;8.054;2024-01-30T05:00:34;3.10;1.00
8953;DHT22;4511;50.890;8.054;2024-01-30T05:03:01;3.10;1.00
8953;DHT22;4511;50.890;8.054;2024-01-30T05:05:27;3.10;62.50
8953;DHT22;4511;50.890;8.054;2024-01-30T05:08:00;3.00;1.00
8953;DHT22;4511;50.890;8.054;2024-01-30T05:10:27;3.00;1.00
8953;DHT22;4511;50.890;8.054;2024-01-30T05:12:56;3.00;99.90
8953;DHT22;4511;50.890;8.054;2024-01-30T05:15:23;3.00;99.90
8953;DHT22;4511;50.890;8.054;2024-01-30T05:17:49;3.10;1.00
8953;DHT22;4511;50.890;8.054;2024-01-30T05:20:16;3.10;99.90
8953;DHT22;4511;50.890;8.054;2024-01-30T05:22:43;3.10;1.00
8953;DHT22;4511;50.890;8.054;2024-01-30T05:25:11;3.00;99.90
8953;DHT22;4511;50.890;8.054;2024-01-30T05:27:38;3.00;99.90
8953;DHT22;4511;50.890;8.054;2024-01-30T05:30:07;3.00;99.90
8953;DHT22;4511;50.890;8.054;2024-01-30T05:32:34;3.00;91.80
8953;DHT22;4511;50.890;8.054;2024-01-30T05:35:01;3.00;1.00
8953;DHT22;4511;50.890;8.054;2024-01-30T05:37:28;3.00;1.00
8953;DHT22;4511;50.890;8.054;2024-01-30T05:39:55;3.00;1.00
8953;DHT22;4511;50.890;8.054;2024-01-30T05:42:21;3.00;1.00
8953;DHT22;4511;50.890;8.054;2024-01-30T05:44:48;2.90;1.00
8953;DHT22;4511;50.890;8.054;2024-01-30T05:47:16;2.90;1.00
8953;DHT22;4511;50.890;8.054;2024-01-30T05:49:43;2.90;1.00
8953;DHT22;4511;50.890;8.054;2024-01-30T05:52:09;2.90;99.90
8953;DHT22;4511;50.890;8.054;2024-01-30T05:54:36;2.80;99.90
8953;DHT22;4511;50.890;8.054;2024-01-30T05:57:03;2.90;99.90
8953;DHT22;4511;50.890;8.054;2024-01-30T05:59:30;2.90;1.00
8953;DHT22;4511;50.890;8.054;2024-01-30T06:01:57;2.90;99.90
8953;DHT22;4511;50.890;8.054;2024-01-30T06:04:25;2.90;1.00
8953;DHT22;4511;50.890;8.054;2024-01-30T06:06:51;2.90;1.00
8953;DHT22;4511;50.890;8.054;2024-01-30T06:09:18;2.90;99.90
8953;DHT22;4511;50.890;8.054;2024-01-30T06:11:45;2.90;99.90
8953;DHT22;4511;50.890;8.054;2024-01-30T06:14:11;3.30;1.00
8953;DHT22;4511;50.890;8.054;2024-01-30T06:16:38;3.20;1.00
8953;DHT22;4511;50.890;8.054;2024-01-30T06:19:05;3.10;1.00
8953;DHT22;4511;50.890;8.054;2024-01-30T06:21:33;3.10;99.90
8953;DHT22;4511;50.890;8.054;2024-01-30T06:24:02;3.00;66.30
8953;DHT22;4511;50.890;8.054;2024-01-30T06:26:29;3.00;99.90
8953;DHT22;4511;50.890;8.054;2024-01-30T06:28:55;3.00;99.90
8953;DHT22;4511;50.890;8.054;2024-01-30T06:31:22;3.00;99.90
8953;DHT22;4511;50.890;8.054;2024-01-30T06:33:49;2.90;99.90
8953;DHT22;4511;50.890;8.054;2024-01-30T06:36:16;2.90;99.90
8953;DHT22;4511;50.890;8.054;2024-01-30T06:38:44;2.90;99.90
8953;DHT22;4511;50.890;8.054;2024-01-30T06:41:11;2.90;99.90
8953;DHT22;4511;50.890;8.054;2024-01-30T06:43:37;2.80;99.90
8953;DHT22;4511;50.890;8.054;2024-01-30T06:46:04;2.80;99.90
8953;DHT22;4511;50.890;8.054;2024-01-30T06:48:31;2.70;99.90
8953;DHT22;4511;50.890;8.054;2024-01-30T06:50:57;2.70;99.90
8953;DHT22;4511;50.890;8.054;2024-01-30T06:53:24;2.80;1.00
8953;DHT22;4511;50.890;8.054;2024-01-30T06:55:53;2.80;99.90
8953;DHT22;4511;50.890;8.054;2024-01-30T06:58:20;2.80;99.90
8953;DHT22;4511;50.890;8.054;2024-01-30T07:00:46;2.80;99.90
8953;DHT22;4511;50.890;8.054;2024-01-30T07:03:13;2.80;99.90
8953;DHT22;4511;50.890;8.054;2024-01-30T07:05:40;2.70;99.90
8953;DHT22;4511;50.890;8.054;2024-01-30T07:08:06;2.70;99.90
8953;DHT22;4511;50.890;8.054;2024-01-30T07:10:34;2.70;99.90
8953;DHT22;4511;50.890;8.054;2024-01-30T07:13:02;2.70;99.90
8953;DHT22;4511;50.890;8.054;2024-01-30T07:15:29;2.80;99.90
8953;DHT22;4511;50.890;8.054;2024-01-30T07:17:56;2.80;99.90
8953;DHT22;4511;50.890;8.054;2024-01-30T07:20:23;2.70;99.90
8953;DHT22;4511;50.890;8.054;2024-01-30T07:22:49;2.70;99.90
8953;DHT22;4511;50.890;8.054;2024-01-30T07:25:16;2.70;99.90
8953;DHT22;4511;50.890;8.054;2024-01-30T07:27:43;2.80;1.00
8953;DHT22;4511;50.890;8.054;2024-01-30T07:30:12;2.80;1.00
8953;DHT22;4511;50.890;8.054;2024-01-30T07:32:39;2.80;49.40
8953;DHT22;4511;50.890;8.054;2024-01-30T07:35:06;2.80;1.00
8953;DHT22;4511;50.890;8.054;2024-01-30T07:37:33;2.90;1.00
8953;DHT22;4511;50.890;8.054;2024-01-30T07:39:59;2.90;1.00
8953;DHT22;4511;50.890;8.054;2024-01-30T07:42:26;2.90;1.00
8953;DHT22;4511;50.890;8.054;2024-01-30T07:44:53;2.80;1.00
8953;DHT22;4511;50.890;8.054;2024-01-30T07:47:21;2.80;1.00
8953;DHT22;4511;50.890;8.054;2024-01-30T07:49:47;2.90;1.00
8953;DHT22;4511;50.890;8.054;2024-01-30T07:52:14;3.00;1.00
8953;DHT22;4511;50.890;8.054;2024-01-30T07:54:50;3.00;66.20
8953;DHT22;4511;50.890;8.054;2024-01-30T07:57:17;3.10;1.00
8953;DHT22;4511;50.890;8.054;2024-01-30T07:59:44;3.20;1.00
8953;DHT22;4511;50.890;8.054;2024-01-30T08:02:12;3.10;1.00
8953;DHT22;4511;50.890;8.054;2024-01-30T08:04:40;3.20;1.00
8953;DHT22;4511;50.890;8.054;2024-01-30T08:07:07;3.20;50.30
8953;DHT22;4511;50.890;8.054;2024-01-30T08:09:33;3.30;8.10
8953;DHT22;4511;50.890;8.054;2024-01-30T08:12:00;3.40;1.00
8953;DHT22;4511;50.890;8.054;2024-01-30T08:14:27;3.40;1.00
8953;DHT22;4511;50.890;8.054;2024-01-30T08:16:53;3.40;1.00
8953;DHT22;4511;50.890;8.054;2024-01-30T08:19:20;3.40;1.00
8953;DHT22;4511;50.890;8.054;2024-01-30T08:21:48;3.50;24.80
8953;DHT22;4511;50.890;8.054;2024-01-30T08:24:15;3.40;1.00
8953;DHT22;4511;50.890;8.054;2024-01-30T08:26:42;3.50;1.00
8953;DHT22;4511;50.890;8.054;2024-01-30T08:29:09;3.60;99.90
8953;DHT22;4511;50.890;8.054;2024-01-30T08:31:35;3.70;1.00
8953;DHT22;4511;50.890;8.054;2024-01-30T08:34:02;3.60;99.90
8953;DHT22;4511;50.890;8.054;2024-01-30T08:36:29;3.50;99.90
8953;DHT22;4511;50.890;8.054;2024-01-30T08:38:57;3.40;1.00
8953;DHT22;4511;50.890;8.054;2024-01-30T08:41:24;3.50;1.00
8953;DHT22;4511;50.890;8.054;2024-01-30T08:43:51;3.60;99.90
8953;DHT22;4511;50.890;8.054;2024-01-30T08:46:18;3.70;1.00
8953;DHT22;4511;50.890;8.054;2024-01-30T08:48:46;3.70;1.00
8953;DHT22;4511;50.890;8.054;2024-01-30T08:51:13;3.80;1.00
8953;DHT22;4511;50.890;8.054;2024-01-30T08:53:40;3.90;1.00
8953;DHT22;4511;50.890;8.054;2024-01-30T08:56:08;4.00;1.00
8953;DHT22;4511;50.890;8.054;2024-01-30T08:58:35;4.10;99.90
8953;DHT22;4511;50.890;8.054;2024-01-30T09:01:02;4.10;25.90
8953;DHT22;4511;50.890;8.054;2024-01-30T09:03:30;4.20;1.00
8953;DHT22;4511;50.890;8.054;2024-01-30T09:05:57;4.30;99.90
8953;DHT22;4511;50.890;8.054;2024-01-30T09:08:24;4.40;1.00
8953;DHT22;4511;50.890;8.054;2024-01-30T09:10:50;4.40;1.00
8953;DHT22;4511;50.890;8.054;2024-01-30T09:13:18;4.40;99.90
8953;DHT22;4511;50.890;8.054;2024-01-30T09:15:45;4.50;1.00
8953;DHT22;4511;50.890;8.054;2024-01-30T09:18:12;4.40;2.40
8953;DHT22;4511;50.890;8.054;2024-01-30T09:20:38;4.40;1.00
8953;DHT22;4511;50.890;8.054;2024-01-30T09:23:05;4.20;99.90
8953;DHT22;4511;50.890;8.054;2024-01-30T09:25:32;4.20;1.00
8953;DHT22;4511;50.890;8.054;2024-01-30T09:27:59;4.20;99.90
8953;DHT22;4511;50.890;8.054;2024-01-30T09:30:27;4.30;99.90
8953;DHT22;4511;50.890;8.054;2024-01-30T09:32:54;4.40;1.00
8953;DHT22;4511;50.890;8.054;2024-01-30T09:35:21;4.50;1.00
8953;DHT22;4511;50.890;8.054;2024-01-30T09:37:48;4.60;56.30
8953;DHT22;4511;50.890;8.054;2024-01-30T09:40:14;4.70;1.00
8953;DHT22;4511;50.890;8.054;2024-01-30T09:42:47;4.70;99.90
8953;DHT22;4511;50.890;8.054;2024-01-30T09:45:14;4.70;1.00
8953;DHT22;4511;50.890;8.054;2024-01-30T09:47:44;4.70;99.90
8953;DHT22;4511;50.890;8.054;2024-01-30T09:50:12;4.80;1.00
8953;DHT22;4511;50.890;8.054;2024-01-30T09:52:39;4.90;1.00
8953;DHT22;4511;50.890;8.054;2024-01-30T09:55:06;5.00;99.90
8953;DHT22;4511;50.890;8.054;2024-01-30T09:57:34;4.90;1.00
8953;DHT22;4511;50.890;8.054;2024-01-30T10:00:00;4.90;1.00
8953;DHT22;4511;50.890;8.054;2024-01-30T10:02:27;5.00;99.90
8953;DHT22;4511;50.890;8.054;2024-01-30T10:04:55;5.10;1.00
8953;DHT22;4511;50.890;8.054;2024-01-30T10:07:22;5.00;1.00
8953;DHT22;4511;50.890;8.054;2024-01-30T10:09:49;5.20;99.90
8953;DHT22;4511;50.890;8.054;2024-01-30T10:12:15;5.30;99.90
8953;DHT22;4511;50.890;8.054;2024-01-30T10:14:43;5.40;1.00
8953;DHT22;4511;50.890;8.054;2024-01-30T10:17:11;5.50;99.90
8953;DHT22;4511;50.890;8.054;2024-01-30T10:19:38;5.70;1.00
8953;DHT22;4511;50.890;8.054;2024-01-30T10:22:12;5.80;99.90
8953;DHT22;4511;50.890;8.054;2024-01-30T10:24:38;5.90;99.90
8953;DHT22;4511;50.890;8.054;2024-01-30T10:27:05;5.90;99.90
8953;DHT22;4511;50.890;8.054;2024-01-30T10:29:32;6.00;99.90
8953;DHT22;4511;50.890;8.054;2024-01-30T10:31:59;6.10;1.00
8953;DHT22;4511;50.890;8.054;2024-01-30T10:34:26;6.30;99.90
8953;DHT22;4511;50.890;8.054;2024-01-30T10:36:59;6.30;99.90
8953;DHT22;4511;50.890;8.054;2024-01-30T10:39:29;6.40;99.90
8953;DHT22;4511;50.890;8.054;2024-01-30T10:42:01;6.40;1.00
8953;DHT22;4511;50.890;8.054;2024-01-30T10:44:33;6.50;1.00
8953;DHT22;4511;50.890;8.054;2024-01-30T10:47:06;6.50;1.00
8953;DHT22;4511;50.890;8.054;2024-01-30T10:49:35;6.50;1.00
8953;DHT22;4511;50.890;8.054;2024-01-30T10:52:04;6.60;99.90
8953;DHT22;4511;50.890;8.054;2024-01-30T10:54:34;6.70;99.90
8953;DHT22;4511;50.890;8.054;2024-01-30T10:57:01;6.80;1.00
8953;DHT22;4511;50.890;8.054;2024-01-30T10:59:29;6.70;1.00
8953;DHT22;4511;50.890;8.054;2024-01-30T11:01:57;6.70;31.80
8953;DHT22;4511;50.890;8.054;2024-01-30T11:04:24;6.80;41.60
8953;DHT22;4511;50.890;8.054;2024-01-30T11:06:51;6.90;85.70
8953;DHT22;4511;50.890;8.054;2024-01-30T11:09:18;6.90;99.90
8953;DHT22;4511;50.890;8.054;2024-01-30T11:11:50;7.00;98.40
8953;DHT22;4511;50.890;8.054;2024-01-30T11:14:23;7.10;99.90
8953;DHT22;4511;50.890;8.054;2024-01-30T11:16:50;7.10;99.90
8953;DHT22;4511;50.890;8.054;2024-01-30T11:19:22;7.10;35.80
8953;DHT22;4511;50.890;8.054;2024-01-30T11:21:50;7.20;99.90
8953;DHT22;4511;50.890;8.054;2024-01-30T11:24:19;7.20;99.90
8953;DHT22;4511;50.890;8.054;2024-01-30T11:26:49;7.20;99.90
8953;DHT22;4511;50.890;8.054;2024-01-30T11:29:17;7.30;99.90
8953;DHT22;4511;50.890;8.054;2024-01-30T11:31:52;7.40;99.90
8953;DHT22;4511;50.890;8.054;2024-01-30T11:34:19;7.50;99.90
8953;DHT22;4511;50.890;8.054;2024-01-30T11:36:51;7.60;99.90
8953;DHT22;4511;50.890;8.054;2024-01-30T11:39:21;7.70;99.90
8953;DHT22;4511;50.890;8.054;2024-01-30T11:41:52;7.80;99.90
8953;DHT22;4511;50.890;8.054;2024-01-30T11:44:19;7.90;99.90
8953;DHT22;4511;50.890;8.054;2024-01-30T11:46:47;7.90;99.90
8953;DHT22;4511;50.890;8.054;2024-01-30T11:49:13;8.00;99.90
8953;DHT22;4511;50.890;8.054;2024-01-30T11:51:40;8.10;99.90
8953;DHT22;4511;50.890;8.054;2024-01-30T11:54:07;8.20;99.90
8953;DHT22;4511;50.890;8.054;2024-01-30T11:56:34;8.30;99.90
8953;DHT22;4511;50.890;8.054;2024-01-30T11:59:02;8.40;99.90
8953;DHT22;4511;50.890;8.054;2024-01-30T12:01:29;8.50;99.90
8953;DHT22;4511;50.890;8.054;2024-01-30T12:03:57;8.70;99.90
8953;DHT22;4511;50.890;8.054;2024-01-30T12:06:23;8.90;99.90
8953;DHT22;4511;50.890;8.054;2024-01-30T12:09:00;9.00;99.90
8953;DHT22;4511;50.890;8.054;2024-01-30T12:11:29;9.00;99.90
8953;DHT22;4511;50.890;8.054;2024-01-30T12:13:56;9.10;99.90
8953;DHT22;4511;50.890;8.054;2024-01-30T12:16:24;9.10;99.90
8953;DHT22;4511;50.890;8.054;2024-01-30T12:19:01;9.00;99.90
8953;DHT22;4511;50.890;8.054;2024-01-30T12:21:29;9.00;99.90
8953;DHT22;4511;50.890;8.054;2024-01-30T12:23:56;9.00;99.90
8953;DHT22;4511;50.890;8.054;2024-01-30T12:26:23;9.00;99.90
8953;DHT22;4511;50.890;8.054;2024-01-30T12:28:51;9.10;99.90
8953;DHT22;4511;50.890;8.054;2024-01-30T12:31:26;9.20;99.90
8953;DHT22;4511;50.890;8.054;2024-01-30T12:33:53;9.30;99.90
8953;DHT22;4511;50.890;8.054;2024-01-30T12:36:28;9.30;99.90
8953;DHT22;4511;50.890;8.054;2024-01-30T12:38:56;9.40;99.90
8953;DHT22;4511;50.890;8.054;2024-01-30T12:41:23;9.40;99.90
8953;DHT22;4511;50.890;8.054;2024-01-30T12:43:53;9.50;99.90
8953;DHT22;4511;50.890;8.054;2024-01-30T12:46:20;9.50;99.90
8953;DHT22;4511;50.890;8.054;2024-01-30T12:48:48;9.60;99.90
8953;DHT22;4511;50.890;8.054;2024-01-30T12:51:15;9.80;99.90
8953;DHT22;4511;50.890;8.054;2024-01-30T12:53:42;9.80;99.90
8953;DHT22;4511;50.890;8.054;2024-01-30T12:56:08;9.80;99.90
8953;DHT22;4511;50.890;8.054;2024-01-30T12:58:35;9.80;99.90
8953;DHT22;4511;50.890;8.054;2024-01-30T13:01:02;9.80;99.90
8953;DHT22;4511;50.890;8.054;2024-01-30T13:03:28;9.70;99.90
8953;DHT22;4511;50.890;8.054;2024-01-30T13:05:57;9.60;99.90
8953;DHT22;4511;50.890;8.054;2024-01-30T13:08:24;9.60;99.90
8953;DHT22;4511;50.890;8.054;2024-01-30T13:10:50;9.50;99.90
8953;DHT22;4511;50.890;8.054;2024-01-30T13:13:17;9.50;99.90
8953;DHT22;4511;50.890;8.054;2024-01-30T13:15:44;9.60;99.90
8953;DHT22;4511;50.890;8.054;2024-01-30T13:18:10;9.70;99.90
8953;DHT22;4511;50.890;8.054;2024-01-30T13:20:37;9.80;99.90
8953;DHT22;4511;50.890;8.054;2024-01-30T13:23:05;9.90;99.90
8953;DHT22;4511;50.890;8.054;2024-01-30T13:25:32;9.90;99.90
8953;DHT22;4511;50.890;8.054;2024-01-30T13:27:59;10.00;99.90
8953;DHT22;4511;50.890;8.054;2024-01-30T13:30:26;10.00;99.90
8953;DHT22;4511;50.890;8.054;2024-01-30T13:32:59;10.00;99.90
8953;DHT22;4511;50.890;8.054;2024-01-30T13:35:26;10.00;99.90
8953;DHT22;4511;50.890;8.054;2024-01-30T13:37:53;10.10;99.90
8953;DHT22;4511;50.890;8.054;2024-01-30T13:40:21;10.00;99.90
8953;DHT22;4511;50.890;8.054;2024-01-30T13:42:48;10.00;99.90
8953;DHT22;4511;50.890;8.054;2024-01-30T13:45:15;9.90;99.90
8953;DHT22;4511;50.890;8.054;2024-01-30T13:47:41;9.90;99.90
8953;DHT22;4511;50.890;8.054;2024-01-30T13:50:08;9.90;99.90
8953;DHT22;4511;50.890;8.054;2024-01-30T13:52:40;9.90;99.90
8953;DHT22;4511;50.890;8.054;2024-01-30T13:55:07;9.90;99.90
8953;DHT22;4511;50.890;8.054;2024-01-30T13:57:35;10.00;99.90
8953;DHT22;4511;50.890;8.054;2024-01-30T14:00:02;10.00;99.90
8953;DHT22;4511;50.890;8.054;2024-01-30T14:02:32;10.10;99.90
8953;DHT22;4511;50.890;8.054;2024-01-30T14:04:59;10.10;99.90
8953;DHT22;4511;50.890;8.054;2024-01-30T14:07:25;10.20;99.90
8953;DHT22;4511;50.890;8.054;2024-01-30T14:09:52;10.10;1.00
8953;DHT22;4511;50.890;8.054;2024-01-30T14:12:19;10.10;1.00
8953;DHT22;4511;50.890;8.054;2024-01-30T14:14:47;10.10;1.00
8953;DHT22;4511;50.890;8.054;2024-01-30T14:17:14;10.00;1.00
8953;DHT22;4511;50.890;8.054;2024-01-30T14:19:40;10.00;1.00
8953;DHT22;4511;50.890;8.054;2024-01-30T14:22:07;9.90;1.00
8953;DHT22;4511;50.890;8.054;2024-01-30T14:24:34;9.90;1.00
8953;DHT22;4511;50.890;8.054;2024-01-30T14:27:01;9.80;1.00
8953;DHT22;4511;50.890;8.054;2024-01-30T14:29:27;9.80;1.00
8953;DHT22;4511;50.890;8.054;2024-01-30T14:31:56;9.80;1.00
8953;DHT22;4511;50.890;8.054;2024-01-30T14:34:22;9.80;1.00
8953;DHT22;4511;50.890;8.054;2024-01-30T14:36:49;9.70;1.00
8953;DHT22;4511;50.890;8.054;2024-01-30T14:39:17;9.70;1.00
8953;DHT22;4511;50.890;8.054;2024-01-30T14:41:44;9.70;1.00
8953;DHT22;4511;50.890;8.054;2024-01-30T14:44:11;9.60;1.00
8953;DHT22;4511;50.890;8.054;2024-01-30T14:46:37;9.60;1.00
8953;DHT22;4511;50.890;8.054;2024-01-30T14:49:05;9.60;59.70
8953;DHT22;4511;50.890;8.054;2024-01-30T14:51:33;9.60;99.90
8953;DHT22;4511;50.890;8.054;2024-01-30T14:54:01;9.60;99.90
8953;DHT22;4511;50.890;8.054;2024-01-30T14:56:28;9.60;99.90
8953;DHT22;4511;50.890;8.054;2024-01-30T14:58:55;9.50;99.90
8953;DHT22;4511;50.890;8.054;2024-01-30T15:01:24;9.50;1.00
8953;DHT22;4511;50.890;8.054;2024-01-30T15:03:51;9.50;99.90
8953;DHT22;4511;50.890;8.054;2024-01-30T15:06:19;9.50;1.00
8953;DHT22;4511;50.890;8.054;2024-01-30T15:08:48;9.50;99.90
8953;DHT22;4511;50.890;8.054;2024-01-30T15:11:14;9.60;18.80
8953;DHT22;4511;50.890;8.054;2024-01-30T15:13:41;9.60;99.90
8953;DHT22;4511;50.890;8.054;2024-01-30T15:16:08;9.60;99.90
8953;DHT22;4511;50.890;8.054;2024-01-30T15:18:35;9.60;99.90
8953;DHT22;4511;50.890;8.054;2024-01-30T15:21:02;9.50;99.90
8953;DHT22;4511;50.890;8.054;2024-01-30T15:23:30;9.50;99.90
8953;DHT22;4511;50.890;8.054;2024-01-30T15:25:56;9.50;99.90
8953;DHT22;4511;50.890;8.054;2024-01-30T15:28:34;9.50;99.90
8953;DHT22;4511;50.890;8.054;2024-01-30T15:31:02;9.50;99.90
8953;DHT22;4511;50.890;8.054;2024-01-30T15:33:29;9.40;99.90
8953;DHT22;4511;50.890;8.054;2024-01-30T15:35:56;9.40;99.90
8953;DHT22;4511;50.890;8.054;2024-01-30T15:38:23;9.50;99.90
8953;DHT22;4511;50.890;8.054;2024-01-30T15:40:51;9.40;99.90
8953;DHT22;4511;50.890;8.054;2024-01-30T15:43:17;9.40;99.90
8953;DHT22;4511;50.890;8.054;2024-01-30T15:45:44;9.40;99.90
8953;DHT22;4511;50.890;8.054;2024-01-30T15:48:11;9.30;99.90
8953;DHT22;4511;50.890;8.054;2024-01-30T15:50:39;9.30;99.90
8953;DHT22;4511;50.890;8.054;2024-01-30T15:53:06;9.30;1.00
8953;DHT22;4511;50.890;8.054;2024-01-30T15:55:32;9.30;57.20
8953;DHT22;4511;50.890;8.054;2024-01-30T15:58:01;9.20;99.90
8953;DHT22;4511;50.890;8.054;2024-01-30T16:00:28;9.20;99.90
8953;DHT22;4511;50.890;8.054;2024-01-30T16:02:56;9.20;99.90
8953;DHT22;4511;50.890;8.054;2024-01-30T16:05:23;9.10;99.90
8953;DHT22;4511;50.890;8.054;2024-01-30T16:07:50;9.10;1.00
8953;DHT22;4511;50.890;8.054;2024-01-30T16:10:17;9.10;1.00
8953;DHT22;4511;50.890;8.054;2024-01-30T16:12:44;9.10;1.00
8953;DHT22;4511;50.890;8.054;2024-01-30T16:15:13;9.00;99.90
8953;DHT22;4511;50.890;8.054;2024-01-30T16:17:40;9.00;90.60
8953;DHT22;4511;50.890;8.054;2024-01-30T16:20:08;9.00;99.90
8953;DHT22;4511;50.890;8.054;2024-01-30T16:22:35;9.00;99.90
8953;DHT22;4511;50.890;8.054;2024-01-30T16:25:01;9.00;99.90